Hicks, Louisiana
Current Conditions -  °F | °C
As of 11:58 AM on Friday 21 Nov 2014 (Local Time) from KPOE Reporting Station
Overcast Overcast  
Wind Chill: 67°   Ceiling: 7000
Heat Index: 67°   Visibility: 10mi
Dew Point: 51°   Wind: 9mph
Humidity: 55%   Direction: 140°SE
Pressure: 30.2"   Gusts: 20mph
Location:  31.2063°N, 93.1344°W
Report Text: KPOE 211758Z AUTO 14008G17KT 10SM BKN070 OVC080 20/10 A3020 RMK AO2 SLP228 60001 T01960104 10197 20123 58011
Loading
Personal Weather Stations






























Interactive Weather Map New forecast layout! Learn more

10-Day Weather Forecast

Advertisements
Track Severe Weather on mobile